Terminal Aerodrome Forecast
Issued by NWS

Home | Current Version | Previous Version | Text Only | Print | Product List | Glossary On
Versions: 1 2 3 4 5 6 7 8 9 10 11 12 13
000
FTUS42 KTBW 261100
TAFPGD
TAF
KPGD 261126Z 2612/2712 VRB03KT P6SM SCT250
     FM261400 24004KT P6SM VCSH SCT025 SCT250
     FM261600 24006KT P6SM VCTS SCT035CB BKN250
     FM262300 25008KT P6SM SCT040 BKN250=

USA.gov is the U.S. government's official web portal to all federal, state and local government web resources and services.